nws-alerts: Checking more than four warning/county codes can delay the loading of your pages. You should use a cron job to get the data.

Nearby METAR Reports

 

KOXC - Oxford/Waterbury, Connecticut, USA
Distance from station: NW 7mi, 11km
Updated: 01/30/2023 12:51pm
Mostly cloudy
Mostly cloudy
 Wind from varies
Wind: varies 7 mph , 11 km/h
Temperature: 46°F , 8°C
Wind Chill: 42°F , 6°C
Dew Point: 36°F , 2°C
Humidity: 66%
Barometer: 30.12 inHg , 1020 hPa
Clouds: Mostly cloudy
Visibility: 10 miles , 16 km
Cloud details: Mostly cloudy 7500 ft
2023/01/30 17:51 KOXC 301751Z VRB06KT 10SM BKN075 08/02 A3012 RMK AO2 SLP217 T00830022 10089 20006 58020
KHVN - New Haven/Tweed, Connecticut, USA
Distance from station: SE 13mi, 20km
Updated: 01/30/2023 12:53pm
Few Clouds
Few Clouds
 Wind from varies
Wind: varies 7 mph , 11 km/h
Temperature: 52°F , 11°C
Dew Point: 37°F , 3°C
Humidity: 58%
Barometer: 30.12 inHg , 1020 hPa
Clouds: Few Clouds
Visibility: 10 miles , 16 km
Cloud details: Few Clouds 7000 ft
2023/01/30 17:53 KHVN 301753Z VRB06KT 10SM FEW070 11/03 A3012 RMK AO2 SLP200 T01060028 10106 20017 58025
 
KMMK - Meriden, Connecticut, USA
Distance from station: NE 13mi, 21km
Updated: 01/30/2023 12:53pm
Overcast
Overcast
 Wind from calm
Wind: Calm
Temperature: 50°F , 10°C
Dew Point: 34°F , 1°C
Humidity: 54%
Barometer: 30.12 inHg , 1020 hPa
Clouds: Overcast
Visibility: 10 miles , 16 km
Cloud details: Overcast 8000 ft
2023/01/30 17:53 KMMK 301753Z AUTO 00000KT 10SM OVC080 10/01 A3012 RMK AO2 SLP201 T01000011 10100 21011 58025
KBDR - Bridgeport, Connecticut, USA
Distance from station: SSW 17mi, 27km
Updated: 01/30/2023 12:52pm
Mostly cloudy
Mostly cloudy
 Wind from SSW
Wind: SSW 5 mph , 7 km/h
Temperature: 48°F , 9°C
Wind Chill: 46°F , 8°C
Dew Point: 36°F , 2°C
Humidity: 62%
Barometer: 30.13 inHg , 1020.3 hPa
Clouds: Mostly cloudy
Visibility: 10 miles , 16 km
Cloud details: Mostly cloudy 7000 ft
2023/01/30 17:52 KBDR 301752Z 21004KT 10SM BKN070 09/02 A3013 RMK AO2 SLP204 T00890022 10089 20017 58025
 
KDXR - Danbury, Connecticut, USA
Distance from station: W 23mi, 38km
Updated: 01/30/2023 12:53pm
Mostly cloudy
Mostly cloudy
 Wind from calm
Wind: Calm
Temperature: 48°F , 9°C
Dew Point: 36°F , 2°C
Humidity: 62%
Barometer: 30.13 inHg , 1020.3 hPa
Clouds: Mostly cloudy
Visibility: 10 miles , 16 km
Cloud details: Partly cloudy 3700 ft
Mostly cloudy 7500 ft
2023/01/30 17:53 KDXR 301753Z 00000KT 10SM SCT037 BKN075 09/02 A3013 RMK AO2 SLP205 T00940017 10106 21011 58021